Ralph, Alabama
Current Conditions -  °F | °C
As of 3:53 PM on Monday 24 Nov 2014 (Local Time) from KTCL Reporting Station
Clear Clear  
Wind Chill: 63°   Ceiling: Unl
Heat Index: 63°   Visibility: 10mi
Dew Point: 39°   Wind: 8mph
Humidity: 41%   Direction: 290°WNW
Pressure: 29.93"   Gusts: NA
Location:  33.04°N, 87.77°W
Report Text: KTCL 242153Z 29007KT 10SM CLR 17/04 A2993 RMK AO2 SLP132 T01720039
Loading
Personal Weather Stations






























Interactive Weather Map New forecast layout! Learn more

10-Day Weather Forecast

Advertisements
Track Severe Weather on mobile